Time;durP1;ratioP1;P1;durP2;ratioP2;P2;SDS_P1;SDS_P2;PMS_P1;PMS_P2;Temp;Humidity;BMP_temperature;BMP_pressure;BME280_temperature;BME280_humidity;BME280_pressure;Samples;Min_cycle;Max_cycle;Signal;HPM_P1;HPM_P2
2022/01/01 00:00:30;;;;;;;0.40;0.40;;;;;;;4.78;99.49;99964.03;5065094;28;20036;-79
2022/01/01 00:02:56;;;;;;;0.40;0.40;;;;;;;4.79;99.62;99963.19;5065068;28;20051;-78
2022/01/01 00:05:22;;;;;;;0.30;0.30;;;;;;;4.84;99.58;99969.22;5063441;28;20016;-78
2022/01/01 00:07:47;;;;;;;0.40;0.40;;;;;;;4.86;99.65;99976.97;5063089;28;20043;-79
2022/01/01 00:10:13;;;;;;;0.40;0.40;;;;;;;4.88;99.51;99983.84;5065268;28;20013;-79
2022/01/01 00:12:42;;;;;;;0.40;0.40;;;;;;;4.89;99.57;99990.72;5064704;28;20569;-78
2022/01/01 00:15:07;;;;;;;0.30;0.30;;;;;;;4.88;99.59;99983.84;5065021;28;20063;-78
2022/01/01 00:17:32;;;;;;;0.40;0.40;;;;;;;4.90;99.59;99994.16;5064825;28;20045;-78
2022/01/01 00:19:58;;;;;;;0.40;0.40;;;;;;;4.91;99.66;99991.59;5064827;28;20447;-79
2022/01/01 00:22:23;;;;;;;0.40;0.40;;;;;;;4.98;99.50;100001.94;5064748;28;20025;-78
2022/01/01 00:24:51;;;;;;;0.40;0.40;;;;;;;4.99;99.64;100009.66;5064729;28;20025;-78
2022/01/01 00:27:16;;;;;;;0.40;0.40;;;;;;;5.03;99.82;100007.97;5064097;28;20033;-79
2022/01/01 00:29:42;;;;;;;0.30;0.30;;;;;;;5.04;99.71;100015.72;5065592;28;20025;-79
2022/01/01 00:32:07;;;;;;;0.30;0.30;;;;;;;5.01;99.87;100009.69;5065344;28;20025;-78
2022/01/01 00:34:36;;;;;;;0.40;0.40;;;;;;;5.10;99.97;100032.06;5066971;28;20080;-79
2022/01/01 00:37:02;;;;;;;0.40;0.40;;;;;;;5.10;99.97;100027.75;5065914;28;20164;-78
2022/01/01 00:39:28;;;;;;;0.40;0.40;;;;;;;5.02;99.98;100003.66;5064756;28;20025;-79
2022/01/01 00:41:53;;;;;;;0.40;0.40;;;;;;;5.08;99.74;100025.16;5062479;28;20025;-77
2022/01/01 00:44:18;;;;;;;0.40;0.40;;;;;;;5.15;99.89;100038.97;5063192;28;20021;-77
2022/01/01 00:46:45;;;;;;;0.40;0.40;;;;;;;5.12;99.80;100028.63;5064545;28;20027;-79
2022/01/01 00:49:10;;;;;;;0.30;0.30;;;;;;;5.16;99.89;100032.09;5064500;28;20115;-79
2022/01/01 00:51:35;;;;;;;0.30;0.30;;;;;;;5.19;99.97;100029.56;5065231;28;20040;-75
2022/01/01 00:54:01;;;;;;;0.40;0.40;;;;;;;5.17;99.75;100031.25;5065187;28;20025;-76
2022/01/01 00:56:29;;;;;;;0.40;0.40;;;;;;;5.16;99.71;100030.38;5064037;28;20040;-75
2022/01/01 00:58:54;;;;;;;0.40;0.40;;;;;;;5.19;99.94;100040.69;5064258;28;20024;-77
2022/01/01 01:01:19;;;;;;;0.40;0.40;;;;;;;5.19;99.82;100050.16;5064137;28;20068;-78
2022/01/01 01:03:45;;;;;;;0.40;0.40;;;;;;;5.19;99.92;100056.13;5064456;28;20032;-78
2022/01/01 01:06:12;;;;;;;0.40;0.40;;;;;;;5.23;100.00;100063.88;5063382;28;20050;-77
2022/01/01 01:08:37;;;;;;;0.40;0.40;;;;;;;5.20;100.00;100065.59;5064077;28;20036;-79
2022/01/01 01:11:07;;;;;;;0.40;0.40;;;;;;;5.26;99.72;100063.91;5063922;28;20025;-78
2022/01/01 01:13:33;;;;;;;0.40;0.40;;;;;;;5.25;99.52;100068.22;5063587;28;20072;-79
2022/01/01 01:15:58;;;;;;;0.40;0.40;;;;;;;5.24;99.77;100057.91;5064124;28;20028;-77
2022/01/01 01:18:24;;;;;;;0.40;0.40;;;;;;;5.26;99.51;100063.91;5063729;28;20047;-77
2022/01/01 01:20:49;;;;;;;0.40;0.40;;;;;;;5.21;99.67;100064.75;5062206;28;20493;-78
2022/01/01 01:23:14;;;;;;;0.40;0.40;;;;;;;5.25;99.37;100075.06;5062145;28;20021;-77
2022/01/01 01:25:41;;;;;;;0.40;0.40;;;;;;;5.18;99.58;100077.59;5063533;28;20522;-78
2022/01/01 01:28:11;;;;;;;0.40;0.40;;;;;;;5.29;99.78;100094.81;5063297;28;20045;-75
2022/01/01 01:30:38;;;;;;;0.40;0.40;;;;;;;5.29;99.68;100099.97;5063484;28;20025;-76
2022/01/01 01:33:06;;;;;;;0.40;0.40;;;;;;;5.29;99.67;100105.09;5063574;28;20025;-76
2022/01/01 01:35:31;;;;;;;0.40;0.40;;;;;;;5.26;99.27;100094.78;5063383;28;20025;-78
2022/01/01 01:37:57;;;;;;;0.40;0.40;;;;;;;5.25;99.28;100113.66;5063312;28;20096;-78
2022/01/01 01:40:23;;;;;;;0.40;0.40;;;;;;;5.23;99.12;100105.94;5063255;28;20021;-78
2022/01/01 01:42:49;;;;;;;0.40;0.40;;;;;;;5.26;99.17;100117.94;5063129;28;20481;-77
2022/01/01 01:45:19;;;;;;;0.40;0.40;;;;;;;5.25;99.02;100123.97;5063217;28;20144;-77
2022/01/01 01:47:46;;;;;;;0.40;0.40;;;;;;;5.20;99.28;100119.66;5063054;28;20029;-77
2022/01/01 01:50:14;;;;;;;0.40;0.40;;;;;;;5.20;99.00;100123.91;5063133;28;20035;-77
2022/01/01 01:52:43;;;;;;;0.40;0.40;;;;;;;5.18;99.17;100118.75;5062389;28;20100;-77
2022/01/01 01:55:11;;;;;;;0.40;0.40;;;;;;;5.17;99.14;100127.34;5063217;28;20021;-77
2022/01/01 01:57:41;;;;;;;0.40;0.40;;;;;;;5.12;99.02;100126.44;5062550;28;20025;-77
2022/01/01 02:00:32;;;;;;;0.40;0.40;;;;;;;5.13;98.95;100132.44;5063019;28;20064;-78
2022/01/01 02:02:58;;;;;;;0.50;0.50;;;;;;;5.14;99.13;100122.16;5062883;28;20059;-77
2022/01/01 02:05:23;;;;;;;0.40;0.40;;;;;;;5.16;99.23;100135.03;5061632;28;20445;-77
2022/01/01 02:07:50;;;;;;;0.40;0.40;;;;;;;5.11;98.93;100131.56;5063138;28;20027;-77
2022/01/01 02:10:16;;;;;;;0.40;0.40;;;;;;;5.13;99.01;100142.75;5062955;28;20484;-78
2022/01/01 02:12:47;;;;;;;0.40;0.40;;;;;;;5.07;99.03;100139.25;5062593;28;20497;-79
2022/01/01 02:15:45;;;;;;;0.30;0.30;;;;;;;5.10;99.07;100143.56;5063084;28;20025;-78
2022/01/01 02:18:11;;;;;;;0.40;0.40;;;;;;;5.10;98.89;100156.41;5061504;28;20499;-76
2022/01/01 02:20:37;;;;;;;0.38;0.38;;;;;;;5.08;99.07;100153.84;5062769;28;20025;-77
2022/01/01 02:23:02;;;;;;;0.32;0.32;;;;;;;5.11;99.23;100158.16;5062813;28;20025;-76
2022/01/01 02:25:29;;;;;;;0.38;0.38;;;;;;;5.11;99.28;100160.75;5062916;28;20029;-76
2022/01/01 02:27:55;;;;;;;0.40;0.40;;;;;;;5.12;99.44;100170.19;5062285;28;20055;-76
2022/01/01 02:30:21;;;;;;;0.30;0.30;;;;;;;5.10;99.33;100160.72;5062607;28;20021;-77
2022/01/01 02:32:47;;;;;;;0.40;0.40;;;;;;;5.14;99.64;100173.63;5062818;28;20052;-76
2022/01/01 02:35:15;;;;;;;0.40;0.40;;;;;;;5.15;99.35;100179.63;5062757;28;20071;-77
2022/01/01 02:37:40;;;;;;;0.40;0.40;;;;;;;5.16;99.65;100181.38;5061290;28;20021;-76
2022/01/01 02:40:08;;;;;;;0.40;0.40;;;;;;;5.19;99.50;100189.97;5062691;28;20480;-77
2022/01/01 02:42:33;;;;;;;0.40;0.40;;;;;;;5.19;99.65;100199.41;5062361;28;20033;-77
2022/01/01 02:45:01;;;;;;;0.40;0.40;;;;;;;5.20;99.82;100188.25;5062535;28;20104;-77
2022/01/01 02:47:27;;;;;;;0.40;0.40;;;;;;;5.24;99.97;100187.44;5062457;28;20017;-76
2022/01/01 02:49:52;;;;;;;0.40;0.40;;;;;;;5.28;99.95;100180.63;5062415;28;20033;-77
2022/01/01 02:52:18;;;;;;;0.40;0.40;;;;;;;5.27;99.88;100181.47;5062499;28;20060;-77
2022/01/01 02:54:43;;;;;;;0.40;0.40;;;;;;;5.31;99.72;100198.66;5061239;28;20045;-76
2022/01/01 02:57:08;;;;;;;0.35;0.35;;;;;;;5.35;100.00;100203.00;5062230;28;20143;-77
2022/01/01 02:59:33;;;;;;;0.40;0.40;;;;;;;5.39;99.74;100207.34;5062491;28;20073;-77
2022/01/01 03:01:59;;;;;;;0.40;0.40;;;;;;;5.41;99.90;100208.22;5062501;28;20032;-77
2022/01/01 03:04:25;;;;;;;0.40;0.40;;;;;;;5.43;99.81;100211.66;5063675;28;20087;-77
2022/01/01 03:06:55;;;;;;;0.30;0.30;;;;;;;5.43;100.00;100219.38;5066145;28;20024;-76
2022/01/01 03:09:25;;;;;;;0.40;0.40;;;;;;;5.44;99.76;100218.53;5066099;28;20021;-76
2022/01/01 03:11:51;;;;;;;0.30;0.30;;;;;;;5.45;99.84;100220.25;5065808;28;20136;-77
2022/01/01 03:14:19;;;;;;;0.40;0.40;;;;;;;5.46;99.90;100214.25;5065794;28;20039;-76
2022/01/01 03:16:45;;;;;;;0.32;0.32;;;;;;;5.52;100.00;100220.31;5066105;28;20055;-77
2022/01/01 03:19:12;;;;;;;0.40;0.40;;;;;;;5.55;99.92;100216.06;5064949;28;20048;-76
2022/01/01 03:21:38;;;;;;;0.40;0.40;;;;;;;5.56;100.00;100216.91;5066087;28;20087;-77
2022/01/01 03:24:04;;;;;;;0.40;0.40;;;;;;;5.58;99.74;100218.66;5066023;28;20028;-78
2022/01/01 03:26:29;;;;;;;0.40;0.40;;;;;;;5.60;99.78;100223.84;5064334;28;20029;-77
2022/01/01 03:28:54;;;;;;;0.40;0.40;;;;;;;5.58;99.73;100210.94;5065715;28;20032;-76
2022/01/01 03:31:20;;;;;;;0.40;0.40;;;;;;;5.63;99.83;100223.00;5065737;28;20033;-76
2022/01/01 03:33:45;;;;;;;0.40;0.40;;;;;;;5.62;99.63;100229.88;5065921;28;20025;-75
2022/01/01 03:36:10;;;;;;;0.40;0.40;;;;;;;5.67;99.54;100229.91;5065675;28;20025;-76
2022/01/01 03:38:36;;;;;;;0.40;0.40;;;;;;;5.63;99.50;100239.31;5065585;28;20025;-75
2022/01/01 03:41:01;;;;;;;0.35;0.35;;;;;;;5.63;99.42;100226.44;5065502;28;20036;-76
2022/01/01 03:43:27;;;;;;;0.40;0.40;;;;;;;5.62;99.15;100242.75;5065098;28;20126;-76
2022/01/01 03:45:52;;;;;;;0.40;0.40;;;;;;;5.62;99.40;100242.75;5065475;28;20029;-75
2022/01/01 03:48:17;;;;;;;0.40;0.40;;;;;;;5.62;99.24;100247.91;5065144;28;20056;-76
2022/01/01 03:50:43;;;;;;;0.40;0.40;;;;;;;5.61;99.52;100242.72;5065530;28;20043;-75
2022/01/01 03:53:10;;;;;;;0.40;0.40;;;;;;;5.67;99.51;100247.94;5065441;28;20057;-76
2022/01/01 03:55:35;;;;;;;0.40;0.40;;;;;;;5.65;99.70;100249.63;5065366;28;20469;-76
2022/01/01 03:58:00;;;;;;;0.40;0.40;;;;;;;5.70;99.54;100256.53;5063496;28;20028;-75
2022/01/01 04:00:26;;;;;;;0.40;0.40;;;;;;;5.69;99.59;100247.09;5065203;28;20017;-75
2022/01/01 04:02:51;;;;;;;0.40;0.40;;;;;;;5.72;99.38;100258.28;5065278;28;20366;-74
2022/01/01 04:05:16;;;;;;;0.40;0.40;;;;;;;5.72;99.40;100255.72;5065062;28;20282;-74
2022/01/01 04:07:42;;;;;;;0.40;0.40;;;;;;;5.70;99.44;100260.84;5064975;28;20063;-74
2022/01/01 04:10:08;;;;;;;0.40;0.40;;;;;;;5.65;99.19;100257.34;5064913;28;20485;-75
2022/01/01 04:12:34;;;;;;;0.40;0.40;;;;;;;5.60;99.14;100254.75;5064537;28;20072;-74
2022/01/01 04:15:01;;;;;;;0.40;0.40;;;;;;;5.63;99.40;100266.78;5064966;28;20203;-74
2022/01/01 04:17:27;;;;;;;0.40;0.40;;;;;;;5.59;99.24;100263.31;5063873;28;20059;-75
2022/01/01 04:19:52;;;;;;;0.40;0.40;;;;;;;5.61;99.24;100273.63;5064763;28;20028;-74
2022/01/01 04:22:18;;;;;;;0.40;0.40;;;;;;;5.60;99.50;100274.47;5063303;28;20021;-75
2022/01/01 04:24:43;;;;;;;0.40;0.40;;;;;;;5.60;99.31;100279.63;5065072;28;20025;-74
2022/01/01 04:27:09;;;;;;;0.40;0.40;;;;;;;5.53;99.35;100277.00;5064773;28;20029;-74
2022/01/01 04:29:35;;;;;;;0.40;0.40;;;;;;;5.53;99.08;100286.41;5064760;28;20021;-75
2022/01/01 04:32:01;;;;;;;0.40;0.40;;;;;;;5.50;98.78;100291.53;5064647;28;20025;-74
2022/01/01 04:34:27;;;;;;;0.40;0.40;;;;;;;5.41;98.67;100289.72;5064603;28;20108;-75
2022/01/01 04:37:08;;;;;;;0.40;0.40;;;;;;;5.40;98.52;100299.16;5064887;28;20047;-75
2022/01/01 04:39:36;;;;;;;0.40;0.40;;;;;;;5.36;98.76;100297.41;5064350;28;20021;-75
2022/01/01 04:42:01;;;;;;;0.32;0.32;;;;;;;5.33;98.67;100302.53;5066416;28;20017;-73
2022/01/01 04:44:27;;;;;;;0.40;0.40;;;;;;;5.30;98.98;100310.22;5064112;28;20536;-74
2022/01/01 04:46:52;;;;;;;0.40;0.40;;;;;;;5.33;98.85;100323.13;5064358;28;20047;-74
2022/01/01 04:49:17;;;;;;;0.40;0.40;;;;;;;5.30;98.90;100328.22;5064132;28;20033;-75
2022/01/01 04:51:43;;;;;;;0.40;0.40;;;;;;;5.36;98.95;100330.88;5064141;28;20021;-75
2022/01/01 04:54:15;;;;;;;0.40;0.40;;;;;;;5.31;98.80;100332.53;5063990;28;20174;-75
2022/01/01 04:56:44;;;;;;;0.40;0.40;;;;;;;5.33;98.85;100338.56;5063898;28;20021;-74
2022/01/01 04:59:13;;;;;;;0.40;0.40;;;;;;;5.25;98.61;100333.31;5063933;28;20021;-74
2022/01/01 05:01:39;;;;;;;0.40;0.40;;;;;;;5.22;98.62;100346.16;5063915;28;20021;-75
2022/01/01 05:04:05;;;;;;;0.40;0.40;;;;;;;5.20;98.47;100353.88;5063997;28;20040;-75
2022/01/01 05:06:30;;;;;;;0.40;0.40;;;;;;;5.14;98.49;100347.75;5063861;28;20025;-75
2022/01/01 05:08:56;;;;;;;0.40;0.40;;;;;;;5.14;98.63;100358.06;5063886;28;20143;-76
2022/01/01 05:11:21;;;;;;;0.40;0.40;;;;;;;5.10;98.50;100356.31;5063648;28;20096;-77
2022/01/01 05:13:46;;;;;;;0.40;0.40;;;;;;;5.08;98.49;100363.97;5063273;28;20045;-77
2022/01/01 05:16:16;;;;;;;0.40;0.40;;;;;;;5.07;98.69;100369.97;5063791;28;20043;-76
2022/01/01 05:18:41;;;;;;;0.40;0.40;;;;;;;5.08;98.91;100369.13;5063368;28;20025;-76
2022/01/01 05:21:07;;;;;;;0.40;0.40;;;;;;;5.07;98.72;100368.28;5063692;28;20060;-75
2022/01/01 05:23:32;;;;;;;0.40;0.40;;;;;;;5.07;98.95;100365.69;5063542;28;20024;-74
2022/01/01 05:25:58;;;;;;;0.30;0.30;;;;;;;5.07;99.02;100370.84;5062069;28;20025;-77
2022/01/01 05:28:23;;;;;;;0.40;0.40;;;;;;;5.04;98.80;100375.94;5063062;28;20033;-77
2022/01/01 05:30:49;;;;;;;0.40;0.40;;;;;;;4.95;98.77;100371.53;5063481;28;20027;-77
2022/01/01 05:33:15;;;;;;;0.40;0.40;;;;;;;5.03;98.86;100392.22;5063414;28;20032;-77
2022/01/01 05:35:41;;;;;;;0.40;0.40;;;;;;;4.98;98.86;100393.88;5063231;28;20029;-76
2022/01/01 05:38:06;;;;;;;0.40;0.40;;;;;;;4.92;98.93;100389.50;5063187;28;20025;-76
2022/01/01 05:40:31;;;;;;;0.40;0.40;;;;;;;4.96;98.93;100392.97;5063148;28;20028;-76
2022/01/01 05:42:57;;;;;;;0.40;0.40;;;;;;;4.87;98.67;100386.00;5063127;28;20028;-74
2022/01/01 05:45:22;;;;;;;0.40;0.40;;;;;;;4.79;98.92;100392.75;5063269;28;20313;-75
2022/01/01 05:47:47;;;;;;;0.40;0.40;;;;;;;4.79;98.64;100410.75;5062864;28;20037;-74
2022/01/01 05:50:13;;;;;;;0.40;0.40;;;;;;;4.78;98.75;100421.84;5063048;28;20021;-75
2022/01/01 05:52:38;;;;;;;0.40;0.40;;;;;;;4.77;98.84;100426.16;5063054;28;20124;-75
2022/01/01 05:55:05;;;;;;;0.40;0.40;;;;;;;4.76;98.86;100424.41;5063218;28;20021;-75
2022/01/01 05:57:30;;;;;;;0.40;0.40;;;;;;;4.73;98.92;100433.81;5062633;28;20071;-74
2022/01/01 05:59:55;;;;;;;0.35;0.35;;;;;;;4.71;98.97;100442.34;5062690;28;20028;-74
2022/01/01 06:02:21;;;;;;;0.40;0.40;;;;;;;4.66;98.65;100440.53;5061479;28;20060;-74
2022/01/01 06:04:46;;;;;;;0.40;0.40;;;;;;;4.61;98.71;100449.88;5063049;28;20081;-73
2022/01/01 06:07:12;;;;;;;0.40;0.40;;;;;;;4.58;98.76;100445.56;5062730;28;20028;-71
2022/01/01 06:09:37;;;;;;;0.38;0.38;;;;;;;4.55;98.72;100450.66;5062875;28;20048;-73
2022/01/01 06:12:02;;;;;;;0.40;0.40;;;;;;;4.47;98.77;100445.38;5062720;28;20059;-74
2022/01/01 06:14:28;;;;;;;0.40;0.40;;;;;;;4.53;98.76;100453.19;5062892;28;20059;-73
2022/01/01 06:16:54;;;;;;;0.40;0.40;;;;;;;4.51;99.00;100456.56;5062940;28;20051;-73
2022/01/01 06:19:19;;;;;;;0.40;0.40;;;;;;;4.51;99.10;100456.56;5062930;28;20024;-73
2022/01/01 06:21:45;;;;;;;0.40;0.40;;;;;;;4.46;99.11;100452.22;5062831;28;20549;-72
2022/01/01 06:24:10;;;;;;;0.40;0.40;;;;;;;4.46;98.92;100467.66;5062748;28;20040;-72
2022/01/01 06:26:35;;;;;;;0.40;0.40;;;;;;;4.43;99.01;100471.84;5062579;28;20021;-73
2022/01/01 06:29:01;;;;;;;0.40;0.40;;;;;;;4.44;99.14;100473.59;5062572;28;20025;-74
2022/01/01 06:31:28;;;;;;;0.40;0.40;;;;;;;4.41;99.25;100479.53;5062742;28;20029;-74
2022/01/01 06:33:53;;;;;;;0.40;0.40;;;;;;;4.40;99.14;100476.94;5062936;28;20049;-74
2022/01/01 06:36:19;;;;;;;0.40;0.40;;;;;;;4.43;99.23;100488.16;5062591;28;20025;-74
2022/01/01 06:38:45;;;;;;;0.30;0.30;;;;;;;4.45;99.40;100496.78;5062501;28;20550;-74
2022/01/01 06:41:11;;;;;;;0.40;0.40;;;;;;;4.46;99.12;100503.63;5065055;28;20116;-74
2022/01/01 06:43:38;;;;;;;0.35;0.35;;;;;;;4.50;99.09;100504.56;5066081;28;20020;-73
2022/01/01 06:46:05;;;;;;;0.35;0.35;;;;;;;4.46;99.27;100505.34;5066277;28;20048;-75
2022/01/01 06:48:30;;;;;;;0.40;0.40;;;;;;;4.49;99.08;100513.09;5066062;28;20090;-73
2022/01/01 06:50:55;;;;;;;0.40;0.40;;;;;;;4.47;99.24;100518.22;5066371;28;20067;-74
2022/01/01 06:53:21;;;;;;;0.40;0.40;;;;;;;4.45;99.19;100527.63;5066449;28;20021;-74
2022/01/01 06:55:46;;;;;;;0.40;0.40;;;;;;;4.43;99.13;100541.25;5066014;28;20024;-74
2022/01/01 06:58:11;;;;;;;0.40;0.40;;;;;;;4.37;99.27;100539.47;5065835;28;20071;-75
2022/01/01 07:00:40;;;;;;;0.40;0.40;;;;;;;4.34;99.06;100547.13;5066303;28;20402;-75
2022/01/01 07:03:06;;;;;;;0.40;0.40;;;;;;;4.27;98.79;100558.97;5066041;28;20025;-75
2022/01/01 07:05:31;;;;;;;0.30;0.30;;;;;;;4.16;98.75;100570.72;5066063;28;20040;-75
2022/01/01 07:07:57;;;;;;;0.40;0.40;;;;;;;4.04;98.67;100566.22;5066033;28;20528;-78
2022/01/01 07:10:22;;;;;;;0.40;0.40;;;;;;;3.96;98.62;100581.47;5064222;28;20025;-74
2022/01/01 07:12:48;;;;;;;0.40;0.40;;;;;;;3.88;98.59;100586.44;5065560;28;20132;-73
2022/01/01 07:15:15;;;;;;;0.40;0.40;;;;;;;3.78;98.44;100599.91;5064492;28;20028;-74
2022/01/01 07:17:40;;;;;;;0.40;0.40;;;;;;;3.65;98.24;100593.59;5065720;28;20048;-75
2022/01/01 07:20:07;;;;;;;0.40;0.40;;;;;;;3.54;98.05;100601.94;5065621;28;20017;-76
2022/01/01 07:22:37;;;;;;;0.40;0.40;;;;;;;3.45;98.10;100606.84;5065549;28;20020;-77
2022/01/01 07:25:03;;;;;;;0.40;0.40;;;;;;;3.32;98.16;100605.69;5065706;28;20021;-79
2022/01/01 07:27:29;;;;;;;0.40;0.40;;;;;;;3.32;98.28;100624.50;5065682;28;20028;-81
2022/01/01 07:29:54;;;;;;;0.40;0.40;;;;;;;3.24;98.25;100620.91;5065602;28;20048;-83
2022/01/01 07:32:19;;;;;;;0.40;0.40;;;;;;;3.16;98.10;100627.53;5065480;28;20032;-83
2022/01/01 07:34:44;;;;;;;0.40;0.40;;;;;;;3.08;98.17;100638.44;5065616;28;20029;-83
2022/01/01 07:37:10;;;;;;;0.40;0.40;;;;;;;2.95;97.89;100638.97;5065495;28;20372;-81
2022/01/01 07:39:35;;;;;;;0.40;0.40;;;;;;;2.82;97.98;100642.88;5065284;28;20029;-83
2022/01/01 07:42:00;;;;;;;0.40;0.40;;;;;;;2.75;97.83;100659.78;5065314;28;20024;-80
2022/01/01 07:44:26;;;;;;;0.40;0.40;;;;;;;2.65;97.98;100670.63;5065166;28;20067;-79
2022/01/01 07:46:52;;;;;;;0.40;0.40;;;;;;;2.57;97.76;100667.84;5065195;28;20048;-80
2022/01/01 07:49:18;;;;;;;0.40;0.40;;;;;;;2.51;97.88;100680.47;5064961;28;20048;-76
2022/01/01 07:51:43;;;;;;;0.40;0.40;;;;;;;2.42;97.61;100699.88;5063629;28;20021;-76
2022/01/01 07:54:08;;;;;;;0.40;0.40;;;;;;;2.27;97.79;100681.50;5064843;28;20021;-76
2022/01/01 07:56:34;;;;;;;0.40;0.40;;;;;;;2.22;97.88;100699.28;5064952;28;20035;-76
2022/01/01 07:58:59;;;;;;;0.40;0.40;;;;;;;2.17;97.75;100696.56;5064820;28;20116;-76
2022/01/01 08:01:24;;;;;;;0.40;0.40;;;;;;;2.13;97.88;100693.84;5065043;28;20044;-76
2022/01/01 08:03:50;;;;;;;0.40;0.40;;;;;;;2.03;97.86;100697.84;5065007;28;20024;-75
2022/01/01 08:06:16;;;;;;;0.40;0.40;;;;;;;1.98;98.23;100710.50;5064811;28;20447;-75
2022/01/01 08:08:41;;;;;;;0.40;0.40;;;;;;;1.95;98.14;100713.81;5064565;28;20067;-74
2022/01/01 08:11:07;;;;;;;0.40;0.40;;;;;;;1.87;98.13;100714.41;5064597;28;20090;-74
2022/01/01 08:13:35;;;;;;;0.40;0.40;;;;;;;1.85;98.07;100730.56;5064530;28;20045;-74
2022/01/01 08:16:02;;;;;;;0.43;0.43;;;;;;;1.85;98.05;100732.28;5064592;28;20021;-75
2022/01/01 08:18:28;;;;;;;0.40;0.40;;;;;;;1.80;97.99;100739.81;5064420;28;20024;-74
2022/01/01 08:20:53;;;;;;;0.40;0.40;;;;;;;1.79;98.03;100750.00;5064334;28;20016;-75
2022/01/01 08:23:18;;;;;;;0.40;0.40;;;;;;;1.74;98.17;100754.97;5062893;28;20036;-74
2022/01/01 08:25:43;;;;;;;0.40;0.40;;;;;;;1.70;98.13;100763.34;5064301;28;20100;-74
2022/01/01 08:28:09;;;;;;;0.40;0.40;;;;;;;1.71;98.17;100781.31;5064287;28;20088;-74
2022/01/01 08:30:35;;;;;;;0.40;0.40;;;;;;;1.71;98.19;100786.44;5062866;28;20532;-74
2022/01/01 08:33:03;;;;;;;0.40;0.40;;;;;;;1.67;98.46;100782.06;5064228;28;20031;-75
2022/01/01 08:35:31;;;;;;;0.40;0.40;;;;;;;1.75;98.59;100792.53;5064058;28;20055;-74
2022/01/01 08:37:56;;;;;;;0.40;0.40;;;;;;;1.79;98.58;100803.78;5064150;28;20047;-73
2022/01/01 08:40:23;;;;;;;0.40;0.40;;;;;;;1.72;98.63;100780.53;5064075;28;20477;-73
2022/01/01 08:42:49;;;;;;;0.40;0.40;;;;;;;1.85;98.68;100802.25;5063845;28;20025;-74
2022/01/01 08:45:14;;;;;;;0.40;0.40;;;;;;;1.88;98.80;100803.19;5064171;28;20024;-74
2022/01/01 08:47:39;;;;;;;0.40;0.40;;;;;;;1.86;98.88;100792.91;5063802;28;20416;-73
2022/01/01 08:50:05;;;;;;;0.40;0.40;;;;;;;1.87;98.74;100793.78;5063820;28;20130;-73
2022/01/01 08:52:31;;;;;;;0.45;0.45;;;;;;;1.86;98.84;100790.34;5063921;28;20035;-73
2022/01/01 08:54:56;;;;;;;0.40;0.40;;;;;;;1.90;98.52;100809.25;5064073;28;20052;-74
2022/01/01 08:57:23;;;;;;;0.35;0.35;;;;;;;1.88;98.79;100806.63;5063911;28;20068;-73
2022/01/01 08:59:48;;;;;;;0.40;0.40;;;;;;;1.90;98.75;100815.22;5063707;28;20025;-72
2022/01/01 09:02:13;;;;;;;0.40;0.40;;;;;;;1.93;98.60;100817.88;5063027;28;20032;-73
2022/01/01 09:04:39;;;;;;;0.40;0.40;;;;;;;1.94;98.93;100819.66;5063530;28;20021;-73
2022/01/01 09:07:04;;;;;;;0.40;0.40;;;;;;;2.00;98.85;100825.81;5063553;28;20093;-72
2022/01/01 09:09:30;;;;;;;0.40;0.40;;;;;;;2.01;98.72;100838.66;5063382;28;20084;-71
2022/01/01 09:11:56;;;;;;;0.45;0.45;;;;;;;2.00;98.68;100833.50;5063209;28;20100;-72
2022/01/01 09:14:22;;;;;;;0.40;0.40;;;;;;;1.99;98.81;100840.28;5063268;28;20052;-72
2022/01/01 09:16:47;;;;;;;0.50;0.50;;;;;;;1.97;98.67;100842.78;5063419;28;20500;-72
2022/01/01 09:19:13;;;;;;;0.40;0.40;;;;;;;2.02;98.81;100863.44;5063179;28;20017;-71
2022/01/01 09:21:38;;;;;;;0.40;0.40;;;;;;;1.96;98.45;100853.88;5061720;28;20068;-71
2022/01/01 09:24:04;;;;;;;0.40;0.40;;;;;;;1.97;98.61;100859.84;5063305;28;20031;-71
2022/01/01 09:26:29;;;;;;;0.50;0.50;;;;;;;1.87;98.68;100853.53;5063360;28;20024;-71
2022/01/01 09:28:55;;;;;;;0.40;0.40;;;;;;;1.95;98.33;100862.34;5062902;28;20053;-70
2022/01/01 09:31:20;;;;;;;0.40;0.40;;;;;;;2.05;98.95;100875.47;5063044;28;20013;-70
2022/01/01 09:33:45;;;;;;;0.40;0.40;;;;;;;2.06;98.89;100872.09;5063035;28;20456;-71
2022/01/01 09:36:14;;;;;;;0.40;0.40;;;;;;;2.08;98.95;100875.56;5063339;28;20032;-70
2022/01/01 09:38:40;;;;;;;0.40;0.40;;;;;;;2.13;98.91;100874.03;5062712;28;20025;-70
2022/01/01 09:41:05;;;;;;;0.40;0.40;;;;;;;2.16;99.16;100871.59;5063411;28;20052;-70
2022/01/01 09:43:32;;;;;;;0.40;0.40;;;;;;;2.21;99.05;100872.63;5062949;28;20127;-69
2022/01/01 09:45:59;;;;;;;0.40;0.40;;;;;;;2.23;98.99;100881.25;5063046;28;20084;-70
2022/01/01 09:48:26;;;;;;;0.40;0.40;;;;;;;2.27;98.87;100889.88;5062881;28;20147;-70
2022/01/01 09:50:55;;;;;;;0.40;0.40;;;;;;;2.32;99.02;100890.03;5061723;28;20017;-69
2022/01/01 09:53:23;;;;;;;0.40;0.40;;;;;;;2.36;99.06;100894.47;5063063;28;20035;-69
2022/01/01 09:55:49;;;;;;;0.40;0.40;;;;;;;2.40;99.12;100890.28;5063236;28;20031;-70
2022/01/01 09:58:14;;;;;;;0.40;0.40;;;;;;;2.43;99.22;100893.81;5062658;28;20021;-70
2022/01/01 10:00:39;;;;;;;0.40;0.40;;;;;;;2.45;99.03;100906.69;5062854;28;20013;-70
2022/01/01 10:03:05;;;;;;;0.40;0.40;;;;;;;2.45;99.00;100904.13;5062771;28;20032;-70
2022/01/01 10:05:30;;;;;;;0.40;0.40;;;;;;;2.41;98.81;100892.91;5062832;28;20017;-69
2022/01/01 10:08:00;;;;;;;0.50;0.50;;;;;;;2.38;98.55;100900.47;5062820;28;20017;-69
2022/01/01 10:10:26;;;;;;;0.40;0.40;;;;;;;2.30;98.67;100907.91;5062716;28;20072;-69
2022/01/01 10:12:52;;;;;;;0.40;0.40;;;;;;;2.27;98.56;100917.22;5062663;28;20535;-70
2022/01/01 10:15:18;;;;;;;0.40;0.40;;;;;;;2.25;98.75;100903.47;5065375;28;20025;-69
2022/01/01 10:17:44;;;;;;;0.50;0.50;;;;;;;2.27;98.70;100910.38;5066873;28;20043;-68
2022/01/01 10:20:10;;;;;;;0.40;0.40;;;;;;;2.27;98.53;100912.09;5066909;28;20025;-70
2022/01/01 10:22:37;;;;;;;0.50;0.50;;;;;;;2.27;98.60;100923.19;5067023;28;20024;-70
2022/01/01 10:28:01;;;;;;;0.40;0.40;;;;;;;2.29;98.71;100915.56;5066572;28;20055;-70
2022/01/01 10:30:39;;;;;;;0.40;0.40;;;;;;;2.33;98.68;100919.97;5066554;28;20063;-71
2022/01/01 10:33:09;;;;;;;0.40;0.40;;;;;;;2.40;98.90;100931.28;5066599;28;20043;-70
2022/01/01 10:35:37;;;;;;;0.40;0.40;;;;;;;2.42;98.83;100925.41;5066417;28;20107;-75
2022/01/01 10:38:11;;;;;;;0.40;0.40;;;;;;;2.52;98.98;100934.28;5065025;28;20040;-71
2022/01/01 10:40:36;;;;;;;0.40;0.40;;;;;;;2.59;99.10;100940.47;5066319;28;20024;-73
2022/01/01 10:43:02;;;;;;;0.47;0.47;;;;;;;2.62;98.95;100932.88;5066113;28;20385;-71
2022/01/01 10:45:33;;;;;;;0.38;0.38;;;;;;;2.68;98.82;100945.91;5066337;28;20386;-71
2022/01/01 10:50:43;;;;;;;0.40;0.40;;;;;;;2.66;98.70;100946.66;5066157;28;20020;-71
2022/01/01 10:53:14;;;;;;;0.40;0.40;;;;;;;2.67;98.70;100946.72;5065677;28;20087;-71
2022/01/01 10:55:44;;;;;;;0.50;0.50;;;;;;;2.70;98.84;100949.38;5064362;28;20021;-72
2022/01/01 10:58:17;;;;;;;0.40;0.40;;;;;;;2.65;98.63;100940.66;5065645;28;20024;-72
2022/01/01 11:00:44;;;;;;;0.40;0.40;;;;;;;2.73;98.89;100949.47;5065888;28;20017;-71
2022/01/01 11:03:09;;;;;;;0.40;0.40;;;;;;;2.75;99.06;100943.56;5065938;28;20021;-72
2022/01/01 11:05:37;;;;;;;0.30;0.30;;;;;;;2.81;98.62;100933.50;5066030;28;20025;-73
2022/01/01 11:08:05;;;;;;;0.40;0.40;;;;;;;2.83;98.84;100932.69;5064282;28;20116;-73
2022/01/01 11:10:31;;;;;;;0.40;0.40;;;;;;;2.76;98.56;100911.94;5065547;28;20105;-73
2022/01/01 11:13:00;;;;;;;0.38;0.38;;;;;;;2.82;98.72;100927.53;5065106;28;20045;-73
2022/01/01 11:15:26;;;;;;;0.40;0.40;;;;;;;2.68;98.77;100899.78;5065503;28;20168;-73
2022/01/01 11:17:52;;;;;;;0.40;0.40;;;;;;;2.84;98.72;100937.00;5063944;28;20032;-72
2022/01/01 11:20:19;;;;;;;0.45;0.45;;;;;;;2.84;98.72;100933.59;5064032;28;20025;-72
2022/01/01 11:22:45;;;;;;;0.40;0.40;;;;;;;2.93;98.95;100944.13;5065458;28;20060;-71
2022/01/01 11:25:11;;;;;;;0.40;0.40;;;;;;;2.94;98.67;100942.44;5065303;28;20036;-70
2022/01/01 11:27:36;;;;;;;0.40;0.40;;;;;;;2.92;98.49;100934.72;5063841;28;20021;-72
2022/01/01 11:30:08;;;;;;;0.40;0.40;;;;;;;2.86;98.63;100924.22;5064168;28;20029;-72
2022/01/01 11:32:51;;;;;;;0.50;0.50;;;;;;;2.83;98.64;100917.31;5065451;28;20017;-73
2022/01/01 11:35:23;;;;;;;0.40;0.40;;;;;;;2.89;98.73;100920.91;5065621;28;20510;-74